Main page
METAR-TAF:

METAR-TAF

Airports :

Le Havre – Octeville Airport

Le Havre, France

latitude: 49-31N, longitude: 000-04E, elevation: 100 m

Current weather observation

The report was made 31 minutes ago, at 07:30 UTC
Wind 5 kt from the East/Northeast
Temperature 3°C
Humidity 93%
Pressure 1012 hPa
Visibility 10 km or more
Overcast at a height of 1300 ft

METAR: LFOH 200730Z AUTO 06005KT 9999 OVC013 03/02 Q1012 BECMG BKN017

Time: 09:01 (08:01 UTC)

Forecast

The report was made 2 hours and 12 minutes ago, at 05:49 UTC
Forecast valid from 20 at 06 UTC to 21 at 06 UTC
Wind 5 kt from the East/Northeast
Visibility: 8000 m
Overcast at a height of 1100 ft
Becoming
from 20 at 09 UTC to 20 at 12 UTC
Broken clouds at a height of 1700 ft

TAF: LFOH 200549Z 2006/2106 07005KT 8000 OVC011 BECMG 2009/2012 BKN017

Weather observations and forecasts of more than 4000 airports (METAR and TAF reports).

The available stations are represented by yellow and red dots on the map.

Hover mouse over dot to see the name of the station.

Then click to see weather observations and forecasts.

To change the map : click on the green buttons with a black cross to zoom in, on the green button with a dash to zoom out, or on the green arrows for adjacent maps.


METAR-TAF: